sensor_id;sensor_type;location;lat;lon;timestamp;pressure;altitude;pressure_sealevel;temperature;humidity
48015;BME280;33780;51.034;7.120;2023-05-24T00:01:50;101484.31;;;12.45;56.38
48015;BME280;33780;51.034;7.120;2023-05-24T00:04:16;101491.75;;;12.41;56.40
48015;BME280;33780;51.034;7.120;2023-05-24T00:06:42;101488.44;;;12.37;56.46
48015;BME280;33780;51.034;7.120;2023-05-24T00:09:09;101503.81;;;12.35;56.50
48015;BME280;33780;51.034;7.120;2023-05-24T00:11:35;101497.97;;;12.30;56.67
48015;BME280;33780;51.034;7.120;2023-05-24T00:14:00;101505.56;;;12.25;56.59
48015;BME280;33780;51.034;7.120;2023-05-24T00:16:26;101503.13;;;12.22;56.79
48015;BME280;33780;51.034;7.120;2023-05-24T00:18:51;101497.25;;;12.17;57.08
48015;BME280;33780;51.034;7.120;2023-05-24T00:21:16;101500.31;;;12.13;57.02
48015;BME280;33780;51.034;7.120;2023-05-24T00:23:41;101501.66;;;12.07;57.12
48015;BME280;33780;51.034;7.120;2023-05-24T00:26:08;101502.88;;;12.03;57.31
48015;BME280;33780;51.034;7.120;2023-05-24T00:28:34;101508.47;;;12.00;57.12
48015;BME280;33780;51.034;7.120;2023-05-24T00:30:59;101505.31;;;11.95;57.31
48015;BME280;33780;51.034;7.120;2023-05-24T00:33:25;101513.72;;;11.90;57.16
48015;BME280;33780;51.034;7.120;2023-05-24T00:35:52;101503.38;;;11.86;57.42
48015;BME280;33780;51.034;7.120;2023-05-24T00:38:21;101500.03;;;11.82;57.01
48015;BME280;33780;51.034;7.120;2023-05-24T00:40:46;101498.47;;;11.79;57.44
48015;BME280;33780;51.034;7.120;2023-05-24T00:43:13;101505.00;;;11.75;57.42
48015;BME280;33780;51.034;7.120;2023-05-24T00:45:38;101504.41;;;11.72;57.46
48015;BME280;33780;51.034;7.120;2023-05-24T00:48:03;101503.03;;;11.66;57.13
48015;BME280;33780;51.034;7.120;2023-05-24T00:50:29;101504.13;;;11.64;57.51
48015;BME280;33780;51.034;7.120;2023-05-24T00:52:55;101500.84;;;11.60;57.55
48015;BME280;33780;51.034;7.120;2023-05-24T00:55:21;101499.25;;;11.58;57.05
48015;BME280;33780;51.034;7.120;2023-05-24T00:57:47;101496.81;;;11.55;57.25
48015;BME280;33780;51.034;7.120;2023-05-24T01:00:12;101500.59;;;11.52;57.42
48015;BME280;33780;51.034;7.120;2023-05-24T01:02:38;101489.16;;;11.50;57.32
48015;BME280;33780;51.034;7.120;2023-05-24T01:05:03;101501.78;;;11.48;57.22
48015;BME280;33780;51.034;7.120;2023-05-24T01:07:36;101495.94;;;11.43;57.48
48015;BME280;33780;51.034;7.120;2023-05-24T01:10:24;101496.28;;;11.38;57.44
48015;BME280;33780;51.034;7.120;2023-05-24T01:13:13;101492.88;;;11.36;57.96
48015;BME280;33780;51.034;7.120;2023-05-24T01:15:42;101490.56;;;11.32;57.45
48015;BME280;33780;51.034;7.120;2023-05-24T01:18:16;101492.72;;;11.27;57.56
48015;BME280;33780;51.034;7.120;2023-05-24T01:20:57;101486.00;;;11.21;57.27
48015;BME280;33780;51.034;7.120;2023-05-24T01:26:36;101487.53;;;11.12;58.03
48015;BME280;33780;51.034;7.120;2023-05-24T01:29:04;101494.72;;;11.12;57.54
48015;BME280;33780;51.034;7.120;2023-05-24T01:31:30;101497.66;;;11.09;57.62
48015;BME280;33780;51.034;7.120;2023-05-24T01:33:55;101493.50;;;11.05;57.76
48015;BME280;33780;51.034;7.120;2023-05-24T01:36:21;101488.50;;;11.00;57.78
48015;BME280;33780;51.034;7.120;2023-05-24T01:38:47;101487.03;;;10.96;57.74
48015;BME280;33780;51.034;7.120;2023-05-24T01:49:53;101490.00;;;10.80;58.13
48015;BME280;33780;51.034;7.120;2023-05-24T01:52:23;101479.59;;;10.76;58.09
48015;BME280;33780;51.034;7.120;2023-05-24T01:54:52;101485.41;;;10.70;58.05
48015;BME280;33780;51.034;7.120;2023-05-24T01:57:21;101484.06;;;10.64;58.15
48015;BME280;33780;51.034;7.120;2023-05-24T01:59:48;101494.03;;;10.62;58.54
48015;BME280;33780;51.034;7.120;2023-05-24T02:02:14;101486.19;;;10.59;58.36
48015;BME280;33780;51.034;7.120;2023-05-24T02:04:39;101490.81;;;10.57;58.11
48015;BME280;33780;51.034;7.120;2023-05-24T02:07:05;101489.47;;;10.51;58.33
48015;BME280;33780;51.034;7.120;2023-05-24T02:09:30;101484.22;;;10.50;58.19
48015;BME280;33780;51.034;7.120;2023-05-24T02:11:55;101478.13;;;10.48;58.33
48015;BME280;33780;51.034;7.120;2023-05-24T02:14:21;101474.94;;;10.43;58.48
48015;BME280;33780;51.034;7.120;2023-05-24T02:16:46;101476.22;;;10.37;58.36
48015;BME280;33780;51.034;7.120;2023-05-24T02:19:15;101489.72;;;10.36;58.50
48015;BME280;33780;51.034;7.120;2023-05-24T02:21:44;101482.78;;;10.33;58.32
48015;BME280;33780;51.034;7.120;2023-05-24T02:24:09;101495.28;;;10.33;58.92
48015;BME280;33780;51.034;7.120;2023-05-24T02:26:37;101498.09;;;10.31;58.33
48015;BME280;33780;51.034;7.120;2023-05-24T02:29:03;101494.66;;;10.29;58.40
48015;BME280;33780;51.034;7.120;2023-05-24T02:31:28;101488.56;;;10.27;58.58
48015;BME280;33780;51.034;7.120;2023-05-24T02:33:57;101484.31;;;10.24;58.00
48015;BME280;33780;51.034;7.120;2023-05-24T02:36:23;101479.94;;;10.23;58.35
48015;BME280;33780;51.034;7.120;2023-05-24T02:38:51;101479.34;;;10.18;58.04
48015;BME280;33780;51.034;7.120;2023-05-24T02:41:16;101477.97;;;10.13;58.56
48015;BME280;33780;51.034;7.120;2023-05-24T02:43:46;101483.84;;;10.05;58.26
48015;BME280;33780;51.034;7.120;2023-05-24T02:46:12;101477.88;;;10.02;58.78
48015;BME280;33780;51.034;7.120;2023-05-24T02:48:37;101474.56;;;9.98;58.69
48015;BME280;33780;51.034;7.120;2023-05-24T02:51:03;101478.44;;;9.94;58.89
48015;BME280;33780;51.034;7.120;2023-05-24T02:53:29;101477.59;;;9.93;58.41
48015;BME280;33780;51.034;7.120;2023-05-24T02:55:54;101470.41;;;9.94;58.60
48015;BME280;33780;51.034;7.120;2023-05-24T02:58:19;101474.91;;;9.93;58.41
48015;BME280;33780;51.034;7.120;2023-05-24T03:00:45;101467.97;;;9.91;58.88
48015;BME280;33780;51.034;7.120;2023-05-24T03:03:11;101472.75;;;9.86;58.92
48015;BME280;33780;51.034;7.120;2023-05-24T03:05:36;101480.25;;;9.81;58.73
48015;BME280;33780;51.034;7.120;2023-05-24T03:08:01;101477.91;;;9.76;59.11
48015;BME280;33780;51.034;7.120;2023-05-24T03:10:26;101475.69;;;9.70;59.21
48015;BME280;33780;51.034;7.120;2023-05-24T03:12:52;101488.19;;;9.69;58.91
48015;BME280;33780;51.034;7.120;2023-05-24T03:15:17;101478.44;;;9.68;58.94
48015;BME280;33780;51.034;7.120;2023-05-24T03:17:42;101473.31;;;9.65;59.24
48015;BME280;33780;51.034;7.120;2023-05-24T03:20:08;101479.63;;;9.64;58.88
48015;BME280;33780;51.034;7.120;2023-05-24T03:22:35;101479.84;;;9.61;59.21
48015;BME280;33780;51.034;7.120;2023-05-24T03:25:00;101469.47;;;9.57;59.04
48015;BME280;33780;51.034;7.120;2023-05-24T03:27:26;101466.16;;;9.53;58.91
48015;BME280;33780;51.034;7.120;2023-05-24T03:29:51;101473.22;;;9.54;58.85
48015;BME280;33780;51.034;7.120;2023-05-24T03:32:16;101473.34;;;9.53;58.59
48015;BME280;33780;51.034;7.120;2023-05-24T03:34:41;101475.22;;;9.51;58.86
48015;BME280;33780;51.034;7.120;2023-05-24T03:37:07;101477.03;;;9.50;58.66
48015;BME280;33780;51.034;7.120;2023-05-24T03:39:32;101477.16;;;9.49;58.60
48015;BME280;33780;51.034;7.120;2023-05-24T03:41:57;101472.13;;;9.44;58.88
48015;BME280;33780;51.034;7.120;2023-05-24T03:44:22;101482.06;;;9.42;58.91
48015;BME280;33780;51.034;7.120;2023-05-24T03:46:48;101475.13;;;9.39;58.84
48015;BME280;33780;51.034;7.120;2023-05-24T03:49:13;101478.88;;;9.37;59.14
48015;BME280;33780;51.034;7.120;2023-05-24T03:51:38;101481.75;;;9.34;59.29
48015;BME280;33780;51.034;7.120;2023-05-24T03:54:04;101482.81;;;9.31;59.16
48015;BME280;33780;51.034;7.120;2023-05-24T03:56:29;101492.63;;;9.31;59.09
48015;BME280;33780;51.034;7.120;2023-05-24T03:58:54;101498.06;;;9.29;58.99
48015;BME280;33780;51.034;7.120;2023-05-24T04:01:21;101501.72;;;9.28;59.24
48015;BME280;33780;51.034;7.120;2023-05-24T04:03:48;101501.06;;;9.25;59.24
48015;BME280;33780;51.034;7.120;2023-05-24T04:06:15;101499.47;;;9.22;59.21
48015;BME280;33780;51.034;7.120;2023-05-24T04:08:40;101491.56;;;9.21;59.21
48015;BME280;33780;51.034;7.120;2023-05-24T04:11:05;101494.13;;;9.22;59.51
48015;BME280;33780;51.034;7.120;2023-05-24T04:13:31;101502.13;;;9.22;59.40
48015;BME280;33780;51.034;7.120;2023-05-24T04:15:56;101506.50;;;9.23;58.86
48015;BME280;33780;51.034;7.120;2023-05-24T04:18:21;101511.84;;;9.23;59.32
48015;BME280;33780;51.034;7.120;2023-05-24T04:20:46;101511.09;;;9.21;59.52
48015;BME280;33780;51.034;7.120;2023-05-24T04:23:12;101508.53;;;9.20;59.30
48015;BME280;33780;51.034;7.120;2023-05-24T04:25:37;101514.00;;;9.18;59.63
48015;BME280;33780;51.034;7.120;2023-05-24T04:28:03;101517.72;;;9.16;59.64
48015;BME280;33780;51.034;7.120;2023-05-24T04:30:28;101519.63;;;9.14;59.94
48015;BME280;33780;51.034;7.120;2023-05-24T04:32:55;101521.44;;;9.13;59.71
48015;BME280;33780;51.034;7.120;2023-05-24T04:35:21;101516.94;;;9.14;59.84
48015;BME280;33780;51.034;7.120;2023-05-24T04:37:46;101519.72;;;9.12;60.14
48015;BME280;33780;51.034;7.120;2023-05-24T04:40:13;101522.59;;;9.09;59.83
48015;BME280;33780;51.034;7.120;2023-05-24T04:42:40;101528.81;;;9.09;60.28
48015;BME280;33780;51.034;7.120;2023-05-24T04:45:06;101528.69;;;9.11;60.10
48015;BME280;33780;51.034;7.120;2023-05-24T04:47:31;101530.31;;;9.14;60.36
48015;BME280;33780;51.034;7.120;2023-05-24T04:49:56;101528.41;;;9.16;60.19
48015;BME280;33780;51.034;7.120;2023-05-24T04:52:22;101537.34;;;9.15;60.41
48015;BME280;33780;51.034;7.120;2023-05-24T04:54:48;101543.53;;;9.15;60.45
48015;BME280;33780;51.034;7.120;2023-05-24T04:57:14;101546.16;;;9.17;60.54
48015;BME280;33780;51.034;7.120;2023-05-24T04:59:39;101541.66;;;9.17;60.31
48015;BME280;33780;51.034;7.120;2023-05-24T05:02:04;101536.97;;;9.21;60.34
48015;BME280;33780;51.034;7.120;2023-05-24T05:04:29;101542.09;;;9.24;60.39
48015;BME280;33780;51.034;7.120;2023-05-24T05:06:55;101544.66;;;9.25;60.75
48015;BME280;33780;51.034;7.120;2023-05-24T05:09:21;101548.28;;;9.24;60.75
48015;BME280;33780;51.034;7.120;2023-05-24T05:11:48;101557.16;;;9.25;60.85
48015;BME280;33780;51.034;7.120;2023-05-24T05:14:13;101547.97;;;9.29;60.83
48015;BME280;33780;51.034;7.120;2023-05-24T05:16:38;101560.25;;;9.31;61.27
48015;BME280;33780;51.034;7.120;2023-05-24T05:19:05;101551.28;;;9.32;61.31
48015;BME280;33780;51.034;7.120;2023-05-24T05:21:30;101555.59;;;9.35;61.61
48015;BME280;33780;51.034;7.120;2023-05-24T05:23:59;101549.41;;;9.34;61.77
48015;BME280;33780;51.034;7.120;2023-05-24T05:26:28;101556.34;;;9.37;61.91
48015;BME280;33780;51.034;7.120;2023-05-24T05:28:54;101556.03;;;9.42;61.65
48015;BME280;33780;51.034;7.120;2023-05-24T05:31:20;101552.19;;;9.46;61.71
48015;BME280;33780;51.034;7.120;2023-05-24T05:33:45;101562.53;;;9.50;61.67
48015;BME280;33780;51.034;7.120;2023-05-24T05:36:11;101553.38;;;9.54;62.01
48015;BME280;33780;51.034;7.120;2023-05-24T05:38:36;101560.22;;;9.58;61.63
48015;BME280;33780;51.034;7.120;2023-05-24T05:41:01;101553.69;;;9.62;61.77
48015;BME280;33780;51.034;7.120;2023-05-24T05:43:26;101553.38;;;9.67;62.19
48015;BME280;33780;51.034;7.120;2023-05-24T05:45:53;101549.66;;;9.69;62.18
48015;BME280;33780;51.034;7.120;2023-05-24T05:48:18;101543.13;;;9.74;62.14
48015;BME280;33780;51.034;7.120;2023-05-24T05:50:43;101541.97;;;9.78;62.18
48015;BME280;33780;51.034;7.120;2023-05-24T05:53:09;101543.44;;;9.82;62.38
48015;BME280;33780;51.034;7.120;2023-05-24T05:55:34;101548.47;;;9.86;62.51
48015;BME280;33780;51.034;7.120;2023-05-24T05:58:00;101544.66;;;9.90;62.54
48015;BME280;33780;51.034;7.120;2023-05-24T06:00:25;101538.97;;;9.95;62.45
48015;BME280;33780;51.034;7.120;2023-05-24T06:02:50;101537.66;;;10.00;62.23
48015;BME280;33780;51.034;7.120;2023-05-24T06:05:17;101531.13;;;10.05;62.33
48015;BME280;33780;51.034;7.120;2023-05-24T06:07:42;101530.84;;;10.09;62.42
48015;BME280;33780;51.034;7.120;2023-05-24T06:10:08;101526.13;;;10.13;62.95
48015;BME280;33780;51.034;7.120;2023-05-24T06:12:33;101520.44;;;10.17;62.88
48015;BME280;33780;51.034;7.120;2023-05-24T06:14:59;101521.84;;;10.23;62.84
48015;BME280;33780;51.034;7.120;2023-05-24T06:17:24;101527.50;;;10.31;63.01
48015;BME280;33780;51.034;7.120;2023-05-24T06:19:50;101513.78;;;10.36;63.19
48015;BME280;33780;51.034;7.120;2023-05-24T06:22:17;101512.28;;;10.44;63.67
48015;BME280;33780;51.034;7.120;2023-05-24T06:24:43;101510.97;;;10.50;63.11
48015;BME280;33780;51.034;7.120;2023-05-24T06:27:08;101505.06;;;10.57;63.13
48015;BME280;33780;51.034;7.120;2023-05-24T06:29:33;101509.00;;;10.65;63.63
48015;BME280;33780;51.034;7.120;2023-05-24T06:31:58;101509.50;;;10.70;63.47
48015;BME280;33780;51.034;7.120;2023-05-24T06:34:24;101513.22;;;10.80;63.75
48015;BME280;33780;51.034;7.120;2023-05-24T06:36:49;101520.69;;;10.87;63.70
48015;BME280;33780;51.034;7.120;2023-05-24T06:39:16;101538.00;;;10.95;63.69
48015;BME280;33780;51.034;7.120;2023-05-24T06:41:42;101526.72;;;11.02;63.70
48015;BME280;33780;51.034;7.120;2023-05-24T06:44:08;101517.00;;;11.12;64.08
48015;BME280;33780;51.034;7.120;2023-05-24T06:46:34;101522.66;;;11.20;63.07
48015;BME280;33780;51.034;7.120;2023-05-24T06:48:59;101521.09;;;11.29;63.36
48015;BME280;33780;51.034;7.120;2023-05-24T06:51:24;101528.81;;;11.34;63.18
48015;BME280;33780;51.034;7.120;2023-05-24T06:53:49;101517.38;;;11.43;62.82
48015;BME280;33780;51.034;7.120;2023-05-24T06:56:15;101522.66;;;11.56;62.95
48015;BME280;33780;51.034;7.120;2023-05-24T06:58:40;101514.84;;;11.64;63.02
48015;BME280;33780;51.034;7.120;2023-05-24T07:01:06;101515.25;;;11.70;62.84
48015;BME280;33780;51.034;7.120;2023-05-24T07:03:31;101525.28;;;11.79;62.70
48015;BME280;33780;51.034;7.120;2023-05-24T07:05:57;101523.09;;;11.85;62.50
48015;BME280;33780;51.034;7.120;2023-05-24T07:08:23;101526.03;;;11.93;62.37
48015;BME280;33780;51.034;7.120;2023-05-24T07:10:49;101528.47;;;11.96;61.91
48015;BME280;33780;51.034;7.120;2023-05-24T07:13:14;101540.31;;;12.04;61.24
48015;BME280;33780;51.034;7.120;2023-05-24T07:15:42;101532.75;;;12.09;61.31
48015;BME280;33780;51.034;7.120;2023-05-24T07:18:07;101537.75;;;12.14;61.23
48015;BME280;33780;51.034;7.120;2023-05-24T07:20:33;101539.19;;;12.18;59.72
48015;BME280;33780;51.034;7.120;2023-05-24T07:22:59;101544.22;;;12.23;60.44
48015;BME280;33780;51.034;7.120;2023-05-24T07:25:25;101542.41;;;12.23;60.11
48015;BME280;33780;51.034;7.120;2023-05-24T07:27:51;101539.81;;;12.33;60.21
48015;BME280;33780;51.034;7.120;2023-05-24T07:30:16;101539.22;;;12.40;59.97
48015;BME280;33780;51.034;7.120;2023-05-24T07:32:42;101543.09;;;12.48;59.58
48015;BME280;33780;51.034;7.120;2023-05-24T07:35:10;101549.53;;;12.56;59.79
48015;BME280;33780;51.034;7.120;2023-05-24T07:37:37;101541.00;;;12.62;60.10
48015;BME280;33780;51.034;7.120;2023-05-24T07:40:02;101539.41;;;12.71;60.06
48015;BME280;33780;51.034;7.120;2023-05-24T07:42:29;101539.63;;;12.79;59.95
48015;BME280;33780;51.034;7.120;2023-05-24T07:44:55;101541.69;;;12.87;58.94
48015;BME280;33780;51.034;7.120;2023-05-24T07:47:21;101538.59;;;12.91;58.57
48015;BME280;33780;51.034;7.120;2023-05-24T07:49:46;101541.41;;;12.90;56.79
48015;BME280;33780;51.034;7.120;2023-05-24T07:52:11;101538.75;;;12.90;57.86
48015;BME280;33780;51.034;7.120;2023-05-24T07:54:36;101536.44;;;12.85;56.70
48015;BME280;33780;51.034;7.120;2023-05-24T07:57:02;101535.97;;;12.80;55.21
48015;BME280;33780;51.034;7.120;2023-05-24T07:59:28;101544.16;;;12.79;56.02
48015;BME280;33780;51.034;7.120;2023-05-24T08:01:54;101548.41;;;12.81;56.41
48015;BME280;33780;51.034;7.120;2023-05-24T08:04:19;101547.19;;;12.74;57.65
48015;BME280;33780;51.034;7.120;2023-05-24T08:06:45;101547.09;;;12.64;58.24
48015;BME280;33780;51.034;7.120;2023-05-24T08:09:10;101553.84;;;12.59;58.89
48015;BME280;33780;51.034;7.120;2023-05-24T08:11:36;101551.88;;;12.50;59.12
48015;BME280;33780;51.034;7.120;2023-05-24T08:14:01;101549.94;;;12.52;58.86
48015;BME280;33780;51.034;7.120;2023-05-24T08:16:27;101543.56;;;12.53;58.79
48015;BME280;33780;51.034;7.120;2023-05-24T08:18:52;101549.69;;;12.55;59.29
48015;BME280;33780;51.034;7.120;2023-05-24T08:21:19;101547.13;;;12.53;58.70
48015;BME280;33780;51.034;7.120;2023-05-24T08:23:44;101547.13;;;12.53;58.95
48015;BME280;33780;51.034;7.120;2023-05-24T08:26:09;101552.22;;;12.56;58.97
48015;BME280;33780;51.034;7.120;2023-05-24T08:28:35;101545.91;;;12.57;59.23
48015;BME280;33780;51.034;7.120;2023-05-24T08:31:00;101549.19;;;12.61;59.13
48015;BME280;33780;51.034;7.120;2023-05-24T08:33:25;101553.81;;;12.70;59.29
48015;BME280;33780;51.034;7.120;2023-05-24T08:35:51;101562.38;;;12.75;57.87
48015;BME280;33780;51.034;7.120;2023-05-24T08:38:16;101567.22;;;12.70;57.50
48015;BME280;33780;51.034;7.120;2023-05-24T08:40:41;101555.38;;;12.73;58.00
48015;BME280;33780;51.034;7.120;2023-05-24T08:43:07;101554.91;;;12.79;57.69
48015;BME280;33780;51.034;7.120;2023-05-24T08:45:36;101549.88;;;12.85;57.31
48015;BME280;33780;51.034;7.120;2023-05-24T08:48:04;101546.56;;;12.93;55.95
48015;BME280;33780;51.034;7.120;2023-05-24T08:50:30;101548.75;;;12.99;56.28
48015;BME280;33780;51.034;7.120;2023-05-24T08:52:56;101548.09;;;13.07;56.17
48015;BME280;33780;51.034;7.120;2023-05-24T08:55:22;101544.91;;;13.13;55.49
48015;BME280;33780;51.034;7.120;2023-05-24T08:57:48;101542.06;;;13.25;56.15
48015;BME280;33780;51.034;7.120;2023-05-24T09:00:14;101534.09;;;13.35;55.56
48015;BME280;33780;51.034;7.120;2023-05-24T09:02:40;101529.03;;;13.42;55.36
48015;BME280;33780;51.034;7.120;2023-05-24T09:05:10;101530.88;;;13.41;55.18
48015;BME280;33780;51.034;7.120;2023-05-24T09:07:35;101537.59;;;13.47;55.51
48015;BME280;33780;51.034;7.120;2023-05-24T09:10:06;101533.28;;;13.44;53.73
48015;BME280;33780;51.034;7.120;2023-05-24T09:12:32;101540.16;;;13.48;54.63
48015;BME280;33780;51.034;7.120;2023-05-24T09:14:58;101530.75;;;13.43;53.98
48015;BME280;33780;51.034;7.120;2023-05-24T09:17:24;101525.09;;;13.46;54.84
48015;BME280;33780;51.034;7.120;2023-05-24T09:19:50;101522.88;;;13.51;54.59
48015;BME280;33780;51.034;7.120;2023-05-24T09:22:17;101529.31;;;13.59;54.84
48015;BME280;33780;51.034;7.120;2023-05-24T09:24:48;101527.94;;;13.65;54.47
48015;BME280;33780;51.034;7.120;2023-05-24T09:27:18;101530.94;;;13.72;54.05
48015;BME280;33780;51.034;7.120;2023-05-24T09:29:47;101529.81;;;13.74;54.27
48015;BME280;33780;51.034;7.120;2023-05-24T09:32:18;101533.81;;;13.80;53.93
48015;BME280;33780;51.034;7.120;2023-05-24T09:34:46;101533.22;;;13.76;52.16
48015;BME280;33780;51.034;7.120;2023-05-24T09:37:14;101523.59;;;13.74;52.57
48015;BME280;33780;51.034;7.120;2023-05-24T09:39:42;101533.22;;;13.76;53.49
48015;BME280;33780;51.034;7.120;2023-05-24T09:42:07;101527.59;;;13.79;53.56
48015;BME280;33780;51.034;7.120;2023-05-24T09:44:32;101525.59;;;13.81;52.95
48015;BME280;33780;51.034;7.120;2023-05-24T09:47:02;101524.19;;;13.77;52.63
48015;BME280;33780;51.034;7.120;2023-05-24T09:49:31;101524.75;;;13.81;53.30
48015;BME280;33780;51.034;7.120;2023-05-24T09:51:56;101523.84;;;13.91;53.29
48015;BME280;33780;51.034;7.120;2023-05-24T09:54:23;101508.72;;;14.00;53.02
48015;BME280;33780;51.034;7.120;2023-05-24T09:56:52;101512.03;;;14.13;52.78
48015;BME280;33780;51.034;7.120;2023-05-24T09:59:17;101508.56;;;14.23;50.63
48015;BME280;33780;51.034;7.120;2023-05-24T10:01:43;101494.09;;;14.24;51.19
48015;BME280;33780;51.034;7.120;2023-05-24T10:04:08;101497.06;;;14.20;49.44
48015;BME280;33780;51.034;7.120;2023-05-24T10:06:35;101498.06;;;14.19;50.68
48015;BME280;33780;51.034;7.120;2023-05-24T10:09:03;101496.59;;;14.15;49.83
48015;BME280;33780;51.034;7.120;2023-05-24T10:11:31;101499.72;;;14.11;50.15
48015;BME280;33780;51.034;7.120;2023-05-24T10:13:58;101507.63;;;14.03;49.62
48015;BME280;33780;51.034;7.120;2023-05-24T10:16:24;101501.25;;;14.04;50.66
48015;BME280;33780;51.034;7.120;2023-05-24T10:18:49;101504.25;;;14.10;51.25
48015;BME280;33780;51.034;7.120;2023-05-24T10:21:16;101504.16;;;14.21;51.63
48015;BME280;33780;51.034;7.120;2023-05-24T10:23:43;101512.09;;;14.23;50.07
48015;BME280;33780;51.034;7.120;2023-05-24T10:26:10;101508.00;;;14.29;50.89
48015;BME280;33780;51.034;7.120;2023-05-24T10:28:43;101512.25;;;14.31;50.13
48015;BME280;33780;51.034;7.120;2023-05-24T10:31:11;101508.00;;;14.29;50.09
48015;BME280;33780;51.034;7.120;2023-05-24T10:33:41;101510.03;;;14.36;50.60
48015;BME280;33780;51.034;7.120;2023-05-24T10:36:09;101507.38;;;14.46;50.59
48015;BME280;33780;51.034;7.120;2023-05-24T10:38:39;101501.88;;;14.57;50.50
48015;BME280;33780;51.034;7.120;2023-05-24T10:41:05;101498.34;;;14.57;48.52
48015;BME280;33780;51.034;7.120;2023-05-24T10:43:33;101511.66;;;14.58;49.24
48015;BME280;33780;51.034;7.120;2023-05-24T10:46:01;101506.13;;;14.60;49.20
48015;BME280;33780;51.034;7.120;2023-05-24T10:50:53;101499.34;;;14.65;49.76
48015;BME280;33780;51.034;7.120;2023-05-24T10:53:21;101493.25;;;14.63;49.05
48015;BME280;33780;51.034;7.120;2023-05-24T10:55:57;101498.06;;;14.69;50.02
48015;BME280;33780;51.034;7.120;2023-05-24T11:01:30;101495.84;;;14.94;49.00
48015;BME280;33780;51.034;7.120;2023-05-24T11:04:15;101490.88;;;14.99;47.83
48015;BME280;33780;51.034;7.120;2023-05-24T11:06:45;101501.91;;;15.05;49.93
48015;BME280;33780;51.034;7.120;2023-05-24T11:09:13;101496.00;;;15.11;49.36
48015;BME280;33780;51.034;7.120;2023-05-24T11:11:43;101488.75;;;15.12;46.91
48015;BME280;33780;51.034;7.120;2023-05-24T11:14:09;101494.13;;;15.02;47.30
48015;BME280;33780;51.034;7.120;2023-05-24T11:16:37;101491.84;;;14.98;47.69
48015;BME280;33780;51.034;7.120;2023-05-24T11:19:13;101490.59;;;14.92;47.15
48015;BME280;33780;51.034;7.120;2023-05-24T11:21:39;101488.75;;;14.93;48.52
48015;BME280;33780;51.034;7.120;2023-05-24T11:24:07;101489.00;;;14.90;47.43
48015;BME280;33780;51.034;7.120;2023-05-24T11:26:34;101493.69;;;14.88;48.58
48015;BME280;33780;51.034;7.120;2023-05-24T11:29:00;101500.06;;;14.87;48.60
48015;BME280;33780;51.034;7.120;2023-05-24T11:31:28;101487.72;;;14.84;48.17
48015;BME280;33780;51.034;7.120;2023-05-24T11:33:53;101486.59;;;14.77;48.14
48015;BME280;33780;51.034;7.120;2023-05-24T11:36:19;101482.91;;;14.78;48.86
48015;BME280;33780;51.034;7.120;2023-05-24T11:38:48;101479.66;;;14.74;48.27
48015;BME280;33780;51.034;7.120;2023-05-24T11:41:14;101487.13;;;14.71;49.01
48015;BME280;33780;51.034;7.120;2023-05-24T11:43:40;101488.28;;;14.68;48.71
48015;BME280;33780;51.034;7.120;2023-05-24T11:46:06;101490.41;;;14.65;48.82
48015;BME280;33780;51.034;7.120;2023-05-24T11:48:31;101482.47;;;14.63;49.63
48015;BME280;33780;51.034;7.120;2023-05-24T11:50:57;101491.09;;;14.67;49.90
48015;BME280;33780;51.034;7.120;2023-05-24T11:53:24;101480.34;;;14.67;50.17
48015;BME280;33780;51.034;7.120;2023-05-24T11:55:49;101485.88;;;14.65;48.89
48015;BME280;33780;51.034;7.120;2023-05-24T12:00:41;101484.88;;;14.57;48.94
48015;BME280;33780;51.034;7.120;2023-05-24T12:03:07;101486.41;;;14.49;48.28
48015;BME280;33780;51.034;7.120;2023-05-24T12:05:34;101479.47;;;14.57;49.53
48015;BME280;33780;51.034;7.120;2023-05-24T12:08:08;101484.88;;;14.57;48.98
48015;BME280;33780;51.034;7.120;2023-05-24T12:10:34;101473.81;;;14.60;47.21
48015;BME280;33780;51.034;7.120;2023-05-24T12:13:01;101482.47;;;14.63;47.67
48015;BME280;33780;51.034;7.120;2023-05-24T12:15:27;101488.72;;;14.73;47.95
48015;BME280;33780;51.034;7.120;2023-05-24T12:17:52;101479.34;;;14.87;48.76
48015;BME280;33780;51.034;7.120;2023-05-24T12:20:18;101477.69;;;14.96;47.19
48015;BME280;33780;51.034;7.120;2023-05-24T12:22:50;101479.09;;;15.09;48.29
48015;BME280;33780;51.034;7.120;2023-05-24T12:25:17;101475.94;;;15.24;48.83
48015;BME280;33780;51.034;7.120;2023-05-24T12:27:55;101477.91;;;15.41;48.16
48015;BME280;33780;51.034;7.120;2023-05-24T12:30:24;101474.38;;;15.50;47.33
48015;BME280;33780;51.034;7.120;2023-05-24T12:32:51;101472.25;;;15.63;48.04
48015;BME280;33780;51.034;7.120;2023-05-24T12:35:20;101474.44;;;15.78;48.06
48015;BME280;33780;51.034;7.120;2023-05-24T12:37:46;101473.28;;;15.90;47.66
48015;BME280;33780;51.034;7.120;2023-05-24T12:40:16;101470.97;;;16.05;48.07
48015;BME280;33780;51.034;7.120;2023-05-24T12:42:45;101470.78;;;16.16;46.73
48015;BME280;33780;51.034;7.120;2023-05-24T12:45:13;101473.09;;;16.28;47.67
48015;BME280;33780;51.034;7.120;2023-05-24T12:47:39;101473.38;;;16.35;46.36
48015;BME280;33780;51.034;7.120;2023-05-24T12:50:05;101475.00;;;16.46;45.92
48015;BME280;33780;51.034;7.120;2023-05-24T12:52:30;101474.16;;;16.45;45.45
48015;BME280;33780;51.034;7.120;2023-05-24T12:54:55;101469.28;;;16.49;46.14
48015;BME280;33780;51.034;7.120;2023-05-24T12:57:20;101477.25;;;16.50;44.22
48015;BME280;33780;51.034;7.120;2023-05-24T12:59:46;101469.97;;;16.51;45.00
48015;BME280;33780;51.034;7.120;2023-05-24T13:02:12;101474.53;;;16.50;44.78
48015;BME280;33780;51.034;7.120;2023-05-24T13:04:37;101468.28;;;16.50;45.19
48015;BME280;33780;51.034;7.120;2023-05-24T13:07:02;101469.00;;;16.52;45.35
48015;BME280;33780;51.034;7.120;2023-05-24T13:09:28;101461.59;;;16.54;46.01